Time;durP1;ratioP1;P1;durP2;ratioP2;P2;SDS_P1;SDS_P2;PMS_P1;PMS_P2;Temp;Humidity;BMP_temperature;BMP_pressure;BME280_temperature;BME280_humidity;BME280_pressure;Samples;Min_cycle;Max_cycle;Signal;HPM_P1;HPM_P2
2022/08/26 00:00:19;;;;;;;12.43;7.95;;;;;;;26.04;55.61;100875.31;2378406;74;50133;-77
2022/08/26 00:03:22;;;;;;;15.32;8.05;;;;;;;26.03;55.61;100875.03;2378447;74;51580;-76
2022/08/26 00:06:24;;;;;;;14.78;7.05;;;;;;;26.03;55.57;100881.81;2397976;74;50450;-76
2022/08/26 00:09:27;;;;;;;11.90;8.25;;;;;;;26.03;55.58;100872.85;2364948;73;51618;-75
2022/08/26 00:12:29;;;;;;;12.07;8.03;;;;;;;26.04;55.59;100874.50;2362667;75;51551;-75
2022/08/26 00:15:31;;;;;;;12.68;7.80;;;;;;;26.03;55.58;100867.43;2311417;75;52409;-75
2022/08/26 00:18:33;;;;;;;14.78;7.95;;;;;;;26.01;55.54;100864.93;2352390;74;52187;-76
2022/08/26 00:21:35;;;;;;;13.15;7.83;;;;;;;26.01;55.54;100859.51;2404038;74;51402;-75
2022/08/26 00:24:38;;;;;;;15.78;8.15;;;;;;;26.01;55.53;100863.58;2406275;73;49531;-75
2022/08/26 00:27:40;;;;;;;14.03;8.10;;;;;;;26.01;55.54;100868.17;2375991;74;49816;-75
2022/08/26 00:30:42;;;;;;;13.53;7.60;;;;;;;26.01;55.54;100862.75;2404432;72;50128;-76
2022/08/26 00:33:44;;;;;;;11.88;7.85;;;;;;;26.00;55.53;100864.64;2404197;72;50711;-75
2022/08/26 00:36:47;;;;;;;10.75;7.75;;;;;;;26.00;55.55;100865.17;2399722;74;50813;-74
2022/08/26 00:39:49;;;;;;;11.30;7.17;;;;;;;26.00;55.52;100861.11;2342353;74;51656;-76
2022/08/26 00:42:52;;;;;;;13.65;7.50;;;;;;;26.00;55.53;100859.75;2362640;75;51485;-76
2022/08/26 00:46:25;;;;;;;13.50;7.70;;;;;;;26.01;55.51;100861.40;2336358;75;50641;-76
2022/08/26 00:49:39;;;;;;;15.72;8.00;;;;;;;26.00;55.50;100863.29;2337458;75;51045;-75
2022/08/26 00:52:42;;;;;;;15.15;7.95;;;;;;;26.00;55.50;100853.80;2361953;75;51614;-75
2022/08/26 00:55:44;;;;;;;12.82;7.87;;;;;;;25.99;55.50;100850.77;2362780;75;51477;-74
2022/08/26 00:58:46;;;;;;;14.68;7.45;;;;;;;25.98;55.49;100847.77;2362609;75;50709;-74
2022/08/26 01:01:49;;;;;;;12.35;7.80;;;;;;;25.97;55.50;100843.91;2362680;75;50638;-76
2022/08/26 01:04:53;;;;;;;12.40;7.58;;;;;;;25.98;55.47;100853.73;2362747;75;51491;-76
2022/08/26 01:07:55;;;;;;;12.05;7.35;;;;;;;25.98;55.47;100855.08;2375248;74;50745;-76
2022/08/26 01:10:57;;;;;;;17.95;7.72;;;;;;;25.99;55.49;100848.59;2404101;73;50792;-76
2022/08/26 01:14:01;;;;;;;12.18;7.75;;;;;;;25.96;55.48;100849.88;2379908;73;50924;-75
2022/08/26 01:17:04;;;;;;;15.88;8.23;;;;;;;25.98;55.49;100856.44;2416164;73;51579;-75
2022/08/26 01:20:24;;;;;;;16.05;8.08;;;;;;;25.98;55.44;100855.91;2416214;73;50416;-75
2022/08/26 01:23:28;;;;;;;15.83;7.87;;;;;;;25.97;55.48;100852.05;2416389;73;50231;-76
2022/08/26 14:49:01;;;;;;;25.17;6.12;;;;;;;25.19;63.42;100590.80;2410405;72;25466;-77
2022/08/26 14:52:04;;;;;;;23.40;6.28;;;;;;;25.20;64.21;100597.36;2371439;75;50273;-77
2022/08/26 14:55:08;;;;;;;24.45;6.47;;;;;;;25.29;64.25;100613.29;2304882;75;51381;-77
2022/08/26 14:58:10;;;;;;;29.75;5.53;;;;;;;25.35;64.10;100592.87;2330960;75;51357;-75
2022/08/26 15:01:12;;;;;;;34.18;6.37;;;;;;;25.42;63.79;100590.08;2303363;75;50819;-77
2022/08/26 15:04:14;;;;;;;38.48;6.28;;;;;;;25.48;63.67;100571.53;2330713;75;51320;-75
2022/08/26 15:07:17;;;;;;;30.60;5.67;;;;;;;25.56;63.81;100554.12;2362767;75;51357;-76
2022/08/26 15:10:19;;;;;;;30.60;5.92;;;;;;;25.61;63.60;100535.28;2336358;75;51448;-77
2022/08/26 15:13:21;;;;;;;26.17;5.80;;;;;;;25.68;62.98;100522.47;2304887;75;50740;-75
2022/08/26 15:16:23;;;;;;;30.25;5.70;;;;;;;25.75;62.77;100512.34;2307285;76;51483;-77
2022/08/26 15:19:26;;;;;;;21.90;5.55;;;;;;;25.77;62.46;100499.39;2344116;75;50363;-76
2022/08/26 15:22:28;;;;;;;25.43;5.53;;;;;;;25.81;62.27;100490.25;2296627;76;50266;-73
2022/08/26 15:25:30;;;;;;;28.17;5.65;;;;;;;25.85;62.16;100500.95;2297121;76;50005;-74
2022/08/26 15:28:32;;;;;;;23.45;5.30;;;;;;;25.83;62.18;100495.73;2296961;76;51887;-73
2022/08/26 15:31:35;;;;;;;14.65;5.35;;;;;;;25.91;62.00;100493.77;2330967;76;51451;-74
2022/08/26 15:34:37;;;;;;;20.97;5.72;;;;;;;25.94;61.86;100498.70;2296510;76;50932;-74
2022/08/26 15:37:40;;;;;;;12.25;5.50;;;;;;;25.97;60.93;100495.52;2330171;76;50672;-74
2022/08/26 15:40:42;;;;;;;16.32;6.05;;;;;;;25.63;60.98;100500.12;2296504;76;51413;-77
2022/08/26 15:43:44;;;;;;;27.42;6.33;;;;;;;25.64;61.00;100499.62;2296666;76;50565;-77
2022/08/26 15:46:47;;;;;;;21.95;6.03;;;;;;;25.68;61.06;100496.72;2305270;74;51487;-74
2022/08/26 15:49:50;;;;;;;24.40;6.92;;;;;;;25.78;61.13;100501.03;2286168;76;51292;-74
2022/08/26 15:52:52;;;;;;;22.13;5.92;;;;;;;25.83;61.32;100480.82;2310501;76;51324;-75
2022/08/26 15:55:55;;;;;;;40.83;7.17;;;;;;;25.88;61.35;100475.27;2310355;76;49968;-77
2022/08/26 15:58:57;;;;;;;45.55;7.87;;;;;;;25.92;61.63;100464.23;2342169;76;50168;-74
2022/08/26 16:02:00;;;;;;;24.67;6.92;;;;;;;25.94;61.70;100464.28;2342025;76;49912;-75
2022/08/26 16:05:02;;;;;;;16.73;6.37;;;;;;;25.95;61.53;100459.17;2341802;76;50599;-76
2022/08/26 16:08:05;;;;;;;13.43;6.30;;;;;;;25.78;61.29;100454.95;2341455;76;51421;-76
2022/08/26 16:11:08;;;;;;;11.53;6.15;;;;;;;25.62;61.13;100451.60;2341911;76;51462;-75
2022/08/26 16:14:10;;;;;;;10.80;6.35;;;;;;;25.65;61.02;100470.09;2310158;76;50143;-75
2022/08/26 16:17:12;;;;;;;11.93;5.53;;;;;;;25.63;61.05;100488.47;2342754;74;50586;-75
2022/08/26 16:20:15;;;;;;;11.95;5.78;;;;;;;25.54;61.46;100485.28;2343701;74;50676;-77
2022/08/26 16:23:18;;;;;;;13.85;5.55;;;;;;;25.57;61.44;100494.83;2319642;74;50954;-76
2022/08/26 16:26:23;;;;;;;9.35;5.10;;;;;;;25.65;61.04;100491.77;2376359;74;51407;-77
2022/08/26 16:29:25;;;;;;;8.60;5.50;;;;;;;25.68;60.87;100468.27;2372939;75;50361;-77
2022/08/26 16:32:27;;;;;;;7.42;5.37;;;;;;;25.69;60.66;100455.03;2372644;75;50634;-77
2022/08/26 16:35:29;;;;;;;10.95;5.10;;;;;;;25.70;60.59;100447.18;2372109;74;51419;-78
2022/08/26 16:38:31;;;;;;;9.90;4.95;;;;;;;25.71;60.48;100454.23;2322836;74;52761;-77
2022/08/26 16:41:34;;;;;;;9.60;5.30;;;;;;;25.74;60.38;100457.01;2349598;74;51318;-76
2022/08/26 16:44:43;;;;;;;9.30;5.17;;;;;;;25.76;60.25;100458.95;2382825;74;51382;-76
2022/08/26 16:47:40;;;;;;;9.75;4.85;;;;;;;25.77;60.20;100458.73;2360194;74;22485;-77
2022/08/26 16:50:42;;;;;;;10.08;4.72;;;;;;;25.78;60.12;100475.28;2322835;76;50246;-77
2022/08/26 16:53:44;;;;;;;8.53;5.28;;;;;;;25.80;60.03;100472.34;2296642;76;50349;-77
2022/08/26 16:56:47;;;;;;;7.40;4.65;;;;;;;25.81;59.94;100470.73;2295982;76;51487;-76
2022/08/26 16:59:49;;;;;;;8.60;5.10;;;;;;;25.82;59.91;100479.72;2296281;76;51441;-76
2022/08/26 17:02:52;;;;;;;7.10;4.80;;;;;;;25.82;59.91;100494.09;2271449;76;51246;-74
2022/08/26 17:05:54;;;;;;;7.58;4.87;;;;;;;25.83;59.84;100493.02;2295992;76;51472;-76
2022/08/26 17:08:56;;;;;;;11.45;5.60;;;;;;;25.84;59.75;100494.72;2342600;75;51323;-76
2022/08/26 17:11:58;;;;;;;11.90;5.50;;;;;;;25.87;60.33;100499.34;2311662;75;51172;-76
2022/08/26 17:15:00;;;;;;;13.48;5.30;;;;;;;25.89;60.52;100507.54;2330183;75;50065;-76
2022/08/26 17:18:03;;;;;;;11.08;5.25;;;;;;;25.90;60.60;100502.44;2329769;75;50360;-75
2022/08/26 17:21:07;;;;;;;13.30;5.60;;;;;;;25.89;60.40;100509.44;2330016;75;51929;-76
2022/08/26 17:24:09;;;;;;;13.95;6.35;;;;;;;25.88;60.11;100503.73;2354979;75;50797;-76
2022/08/26 17:27:11;;;;;;;11.60;5.97;;;;;;;25.89;60.06;100512.14;2330431;75;51275;-77
2022/08/26 17:30:15;;;;;;;10.48;6.87;;;;;;;25.88;59.97;100503.19;2357329;75;51229;-77
2022/08/26 17:33:17;;;;;;;15.83;7.60;;;;;;;25.89;59.92;100499.94;2357120;75;50210;-77
2022/08/26 17:36:20;;;;;;;12.55;8.00;;;;;;;25.89;59.87;100501.30;2329664;75;51080;-76
2022/08/26 17:39:22;;;;;;;17.60;11.15;;;;;;;25.88;59.87;100497.77;2331395;75;51425;-76
2022/08/26 17:42:24;;;;;;;34.75;20.77;;;;;;;25.89;59.86;100501.30;2329685;75;49985;-78
2022/08/26 17:45:26;;;;;;;21.87;9.38;;;;;;;25.90;59.75;100499.72;2330295;75;50527;-77
2022/08/26 17:48:29;;;;;;;57.38;32.08;;;;;;;25.90;59.92;100507.85;2360157;75;50129;-77
2022/08/26 17:51:31;;;;;;;56.63;29.10;;;;;;;25.96;61.10;100508.80;2335494;75;51730;-77
2022/08/26 17:54:33;;;;;;;39.33;21.57;;;;;;;25.90;60.92;100506.50;2335619;75;50646;-77
2022/08/26 17:57:35;;;;;;;30.85;17.77;;;;;;;25.92;60.76;100504.89;2362514;75;51415;-77
2022/08/26 18:00:37;;;;;;;27.50;15.75;;;;;;;25.92;60.62;100499.47;2321843;75;51118;-77
2022/08/26 18:03:40;;;;;;;21.73;13.75;;;;;;;25.87;60.65;100485.80;2371077;75;50614;-76
2022/08/26 18:06:42;;;;;;;20.82;13.05;;;;;;;25.87;60.47;100481.73;2370560;75;51623;-78
2022/08/26 18:09:44;;;;;;;25.00;10.88;;;;;;;25.87;60.52;100484.44;2346961;75;51348;-76
2022/08/26 18:12:47;;;;;;;22.10;11.97;;;;;;;25.88;60.77;100484.75;2371010;75;51448;-77
2022/08/26 18:15:49;;;;;;;19.32;11.08;;;;;;;25.87;60.65;100479.02;2337546;74;50015;-79
2022/08/26 18:18:52;;;;;;;34.40;11.33;;;;;;;25.88;60.65;100479.33;2346392;74;51574;-78
2022/08/26 18:21:54;;;;;;;19.30;9.80;;;;;;;25.87;60.54;100476.30;2363485;74;51412;-78
2022/08/26 18:24:56;;;;;;;23.10;10.23;;;;;;;25.87;60.79;100483.08;2297441;75;52363;-78
2022/08/26 18:27:58;;;;;;;22.67;9.75;;;;;;;25.91;61.08;100482.92;2370850;75;50610;-77
2022/08/26 18:31:01;;;;;;;20.85;9.85;;;;;;;25.92;61.16;100482.70;2370454;75;50689;-78
2022/08/26 18:34:03;;;;;;;18.40;9.45;;;;;;;25.91;60.80;100486.98;2321355;75;50242;-77
2022/08/26 18:37:05;;;;;;;25.32;10.15;;;;;;;25.90;60.55;100487.52;2365766;75;51464;-77
2022/08/26 18:40:09;;;;;;;19.73;8.83;;;;;;;25.91;60.26;100483.73;2307513;75;49360;-76
2022/08/26 18:43:11;;;;;;;21.07;10.08;;;;;;;25.91;60.30;100470.72;2269357;76;50538;-79
2022/08/26 18:46:13;;;;;;;25.32;9.45;;;;;;;25.94;60.18;100468.89;2295256;76;49882;-75
2022/08/26 18:49:17;;;;;;;19.62;9.50;;;;;;;25.93;60.35;100461.83;2295446;76;50918;-75
2022/08/26 18:52:19;;;;;;;16.65;8.68;;;;;;;25.92;60.18;100457.45;2330091;76;51464;-75
2022/08/26 18:55:21;;;;;;;16.57;8.48;;;;;;;25.92;60.15;100458.80;2313237;75;50303;-74
2022/08/26 18:58:24;;;;;;;13.80;7.90;;;;;;;25.92;60.12;100453.38;2295661;75;51452;-75
2022/08/26 19:01:27;;;;;;;13.48;7.72;;;;;;;25.91;60.11;100451.20;2335489;75;51517;-76
2022/08/26 19:04:29;;;;;;;14.23;7.50;;;;;;;25.91;60.06;100446.33;2335226;75;49524;-75
2022/08/26 19:07:31;;;;;;;17.92;8.33;;;;;;;25.91;60.07;100454.45;2329619;75;50308;-75
2022/08/26 19:10:38;;;;;;;11.73;7.92;;;;;;;25.91;60.08;100453.10;2370670;74;50603;-75
2022/08/26 19:13:42;;;;;;;14.98;8.63;;;;;;;25.91;59.91;100459.34;2306961;75;50904;-74
2022/08/26 19:16:46;;;;;;;14.20;8.35;;;;;;;25.94;60.19;100462.11;2295604;76;50026;-74
2022/08/26 19:19:48;;;;;;;13.93;8.95;;;;;;;25.92;60.26;100466.43;2330170;76;50608;-75
2022/08/26 19:22:51;;;;;;;19.02;9.00;;;;;;;25.92;60.11;100476.42;2300982;76;50231;-75
2022/08/26 19:25:53;;;;;;;13.08;8.15;;;;;;;25.93;60.10;100490.30;2327957;74;50169;-79
2022/08/26 19:28:55;;;;;;;19.90;10.63;;;;;;;25.93;59.97;100499.78;2306088;76;50171;-75
2022/08/26 19:31:57;;;;;;;23.05;9.70;;;;;;;25.93;59.86;100507.91;2330189;76;50268;-77
2022/08/26 19:34:59;;;;;;;28.98;9.55;;;;;;;25.94;59.92;100513.62;2308230;76;50656;-75
2022/08/26 19:38:02;;;;;;;17.37;9.13;;;;;;;25.94;60.27;100514.97;2306580;76;51557;-76
2022/08/26 19:41:05;;;;;;;13.85;8.75;;;;;;;25.94;60.04;100513.08;2330555;76;50315;-76
2022/08/26 19:45:06;;;;;;;16.55;8.75;;;;;;;25.95;60.16;100513.94;2283102;76;51434;-76
2022/08/26 19:47:16;;;;;;;13.93;8.90;;;;;;;25.94;59.97;100518.50;2308623;76;22401;-76
2022/08/26 19:50:18;;;;;;;13.45;8.43;;;;;;;25.94;59.86;100525.28;2308759;76;50119;-75
2022/08/26 19:53:20;;;;;;;14.18;8.55;;;;;;;25.93;59.76;100523.64;2291329;76;49556;-76
2022/08/26 19:56:22;;;;;;;16.17;8.53;;;;;;;25.93;59.74;100532.31;2328281;75;50595;-77
2022/08/26 19:59:25;;;;;;;11.00;7.80;;;;;;;25.93;59.67;100535.02;2349061;74;50331;-76
2022/08/26 20:02:29;;;;;;;12.07;8.05;;;;;;;25.91;59.66;100521.69;2284328;75;51887;-77
2022/08/26 20:05:31;;;;;;;11.73;7.73;;;;;;;25.91;59.61;100523.58;2312078;75;50279;-76
2022/08/26 20:08:34;;;;;;;14.87;7.60;;;;;;;25.90;59.55;100522.77;2357587;75;50329;-77
2022/08/26 20:11:36;;;;;;;10.08;6.80;;;;;;;25.91;59.59;100529.01;2308971;75;50340;-76
2022/08/26 20:14:39;;;;;;;10.45;6.65;;;;;;;25.89;59.53;100536.00;2362321;75;51510;-75
2022/08/26 20:17:41;;;;;;;10.95;6.33;;;;;;;25.89;59.56;100543.31;2334866;75;52484;-77
2022/08/26 20:24:09;;;;;;;9.65;7.00;;;;;;;25.89;59.49;100554.98;2370663;75;22330;-76
2022/08/26 20:27:11;;;;;;;10.98;7.03;;;;;;;25.89;59.43;100552.80;2322935;75;50064;-77
2022/08/26 20:30:13;;;;;;;7.60;6.42;;;;;;;25.88;59.38;100551.98;2329525;76;50286;-75
2022/08/26 20:33:16;;;;;;;11.15;6.50;;;;;;;25.88;59.37;100547.92;2327644;76;50280;-76
2022/08/26 20:36:19;;;;;;;12.28;6.40;;;;;;;25.87;59.35;100547.64;2293875;76;50207;-76
2022/08/26 20:39:21;;;;;;;9.00;6.55;;;;;;;25.89;59.27;100550.09;2354065;75;51560;-77
2022/08/26 20:42:25;;;;;;;9.85;6.12;;;;;;;25.87;59.31;100556.27;2303884;75;50862;-77
2022/08/26 20:45:27;;;;;;;8.73;6.37;;;;;;;25.88;59.29;100562.01;2300043;75;51483;-76
2022/08/26 20:48:30;;;;;;;8.15;6.15;;;;;;;25.87;59.24;100560.34;2370225;75;51511;-76
2022/08/26 20:51:32;;;;;;;8.73;6.45;;;;;;;25.88;59.14;100564.72;2354090;75;51698;-76
2022/08/26 20:54:34;;;;;;;8.25;6.15;;;;;;;25.88;59.09;100564.19;2332722;75;51528;-76
2022/08/26 20:57:36;;;;;;;8.68;6.53;;;;;;;25.87;59.02;100558.98;2332598;75;52179;-76
2022/08/26 21:00:38;;;;;;;10.10;6.40;;;;;;;25.87;59.03;100563.05;2333025;76;50087;-76
2022/08/26 21:03:40;;;;;;;9.73;6.83;;;;;;;25.87;58.97;100573.89;2306264;76;50368;-76
2022/08/26 21:06:43;;;;;;;11.83;6.62;;;;;;;25.86;58.94;100573.08;2283025;76;50191;-76
2022/08/26 21:09:45;;;;;;;10.95;6.85;;;;;;;25.86;58.95;100566.30;2327534;75;50666;-76
2022/08/26 21:12:47;;;;;;;9.88;6.80;;;;;;;25.87;58.91;100572.54;2355012;75;51563;-75
2022/08/26 21:15:49;;;;;;;9.25;7.10;;;;;;;25.87;58.86;100565.77;2272239;75;52484;-77
2022/08/26 21:18:51;;;;;;;10.13;7.22;;;;;;;25.85;58.86;100560.06;2330166;75;50352;-76
2022/08/26 21:21:54;;;;;;;8.60;6.28;;;;;;;25.85;58.83;100564.12;2324679;75;50311;-75
2022/08/26 21:24:56;;;;;;;10.93;7.40;;;;;;;25.85;58.82;100564.12;2330139;75;50661;-75
2022/08/26 21:27:58;;;;;;;10.45;6.90;;;;;;;25.85;58.77;100558.70;2329888;75;51597;-75
2022/08/26 21:31:05;;;;;;;10.85;7.15;;;;;;;25.85;58.77;100554.64;2303974;75;50971;-76
2022/08/26 21:34:08;;;;;;;7.47;6.67;;;;;;;25.85;58.74;100554.64;2355063;75;51599;-76
2022/08/26 21:37:10;;;;;;;7.85;6.83;;;;;;;25.85;58.70;100550.56;2345226;75;51335;-75
2022/08/26 21:40:12;;;;;;;9.68;7.97;;;;;;;25.84;58.69;100543.51;2308153;76;51656;-76
2022/08/26 21:43:14;;;;;;;9.68;7.55;;;;;;;25.85;58.65;100543.80;2296483;76;51497;-75
2022/08/26 21:46:19;;;;;;;10.68;8.13;;;;;;;25.84;58.66;100539.91;2323446;76;51452;-76
2022/08/26 21:49:21;;;;;;;11.00;7.47;;;;;;;25.83;58.63;100533.67;2323029;76;51505;-76
2022/08/26 21:52:24;;;;;;;10.35;7.35;;;;;;;25.83;58.62;100538.28;2317874;76;51431;-76
2022/08/26 21:55:26;;;;;;;8.35;7.42;;;;;;;25.84;58.61;100534.02;2317551;76;51556;-76
2022/08/26 21:58:28;;;;;;;11.43;8.40;;;;;;;25.84;58.59;100529.95;2283628;76;51550;-76
2022/08/26 22:01:33;;;;;;;10.38;7.40;;;;;;;25.83;58.55;100532.32;2284167;76;51463;-76
2022/08/26 22:04:36;;;;;;;9.53;7.17;;;;;;;25.84;58.50;100537.20;2284792;76;22256;-77
2022/08/26 22:07:38;;;;;;;10.13;7.58;;;;;;;25.83;58.52;100541.80;2285949;76;50190;-77
2022/08/26 22:10:41;;;;;;;10.05;7.25;;;;;;;25.83;58.56;100545.05;2286782;76;50165;-76
2022/08/26 22:13:44;;;;;;;9.00;7.20;;;;;;;25.82;58.59;100560.50;2323979;76;50307;-75
2022/08/26 22:16:46;;;;;;;11.65;7.12;;;;;;;25.81;58.57;100553.41;2323760;76;50711;-79
2022/08/26 22:19:48;;;;;;;9.43;6.92;;;;;;;25.81;58.60;100543.10;2316833;76;51179;-77
2022/08/26 22:22:51;;;;;;;9.70;6.60;;;;;;;25.81;58.62;100534.44;2316948;76;50660;-77
2022/08/26 22:25:53;;;;;;;9.38;6.83;;;;;;;25.81;58.66;100541.21;2316711;76;50205;-80
2022/08/26 22:28:55;;;;;;;11.30;6.60;;;;;;;25.81;58.64;100540.39;2316804;76;50678;-75
2022/08/26 22:31:58;;;;;;;8.88;6.50;;;;;;;25.80;58.64;100535.50;2323905;76;51490;-75
2022/08/26 22:35:01;;;;;;;9.40;7.35;;;;;;;25.80;58.59;100513.82;2323982;76;51493;-75
2022/08/26 22:38:03;;;;;;;8.45;6.55;;;;;;;25.80;58.59;100504.33;2317668;76;50206;-75
2022/08/26 22:41:07;;;;;;;9.98;6.35;;;;;;;25.80;58.61;100496.73;2328344;75;50651;-75
2022/08/26 22:44:10;;;;;;;12.18;7.08;;;;;;;25.81;58.54;100487.00;2334578;76;50327;-75
2022/08/26 22:47:12;;;;;;;8.25;6.53;;;;;;;25.80;58.56;100467.74;2299841;76;50828;-77
2022/08/26 22:50:15;;;;;;;9.00;6.70;;;;;;;25.81;58.48;100464.50;2333322;76;51461;-77
2022/08/26 22:53:17;;;;;;;10.45;6.40;;;;;;;25.81;58.53;100458.54;2279226;76;51719;-77
2022/08/26 22:56:20;;;;;;;9.15;6.35;;;;;;;25.80;58.54;100456.91;2315014;76;50296;-76
2022/08/26 22:59:23;;;;;;;7.50;6.50;;;;;;;25.79;58.56;100447.13;2316995;76;51563;-76
2022/08/26 23:02:25;;;;;;;8.25;5.45;;;;;;;25.80;58.51;100437.93;2301502;75;49808;-76
2022/08/26 23:05:28;;;;;;;10.00;5.85;;;;;;;25.79;58.51;100424.09;2324780;76;50227;-76
2022/08/26 23:08:30;;;;;;;7.80;5.85;;;;;;;25.80;58.54;100437.93;2275117;76;51185;-76
2022/08/26 23:11:32;;;;;;;6.83;5.37;;;;;;;25.80;58.56;100440.64;2314444;75;50674;-76
2022/08/26 23:14:36;;;;;;;7.28;5.92;;;;;;;25.79;58.51;100463.40;2355148;75;51544;-76
2022/08/26 23:17:38;;;;;;;8.00;5.50;;;;;;;25.79;58.52;100481.52;2269969;75;52472;-76
2022/08/26 23:20:40;;;;;;;6.15;5.40;;;;;;;25.77;58.52;100483.12;2355224;75;51510;-75
2022/08/26 23:23:43;;;;;;;6.28;5.03;;;;;;;25.78;58.56;100481.23;2355326;75;51527;-76
2022/08/26 23:26:46;;;;;;;7.75;5.47;;;;;;;25.77;58.54;100485.84;2294915;75;50515;-75
2022/08/26 23:29:48;;;;;;;7.85;5.87;;;;;;;25.77;58.54;100477.70;2355295;75;51522;-76
2022/08/26 23:32:50;;;;;;;5.95;5.35;;;;;;;25.77;58.57;100473.64;2294444;75;50625;-76
2022/08/26 23:35:52;;;;;;;6.92;5.72;;;;;;;25.76;58.58;100477.39;2329877;75;52420;-74
2022/08/26 23:38:54;;;;;;;6.58;5.87;;;;;;;25.77;58.57;100481.77;2296781;75;51448;-75
2022/08/26 23:41:57;;;;;;;10.15;5.78;;;;;;;25.78;58.47;100485.30;2265293;76;50088;-75
2022/08/26 23:44:59;;;;;;;6.55;5.80;;;;;;;25.79;58.44;100489.14;2291325;76;51358;-76
2022/08/26 23:48:02;;;;;;;9.13;5.75;;;;;;;25.78;58.37;100491.55;2316938;76;51474;-76
2022/08/26 23:54:25;;;;;;;6.15;5.20;;;;;;;25.78;58.35;100490.19;2322650;75;24313;-75
2022/08/26 23:57:27;;;;;;;6.20;5.60;;;;;;;25.78;58.37;100492.89;2334530;76;51553;-75
